CheckWX is a tool to help pilots better visualize weather data.  It is not intended as a substitute for an official pre-flight weather briefing.

07:44:10 UTC

EGMD TAF
Lydd Airport
Lydd, Ashford, United Kingdom
TAF EGMD 200454Z 2006/2015 26010KT 9999 SCT025 PROB30 TEMPO 2011/2015 6000 SHRA

Jun-20@
06:00 UTC

Jun-20 @ 06:00 UTC

Jun-20@
15:00 UTC

Jun-20 @ 15:00 UTC

TAF EGMD 200454Z 2006/2015 26010KT 9999 SCT025
Wind
  • 260° at 10 KTS
Cloud Levels
  • Scattered at 2,500' AGL

Jun-20@
11:00 UTC

Jun-20 @ 11:00 UTC

Jun-20@
15:00 UTC

Jun-20 @ 15:00 UTC

PROB30 TEMPO 2011/2015 6000 SHRA

Temporary - 30% Likelihood

Temporary - 30% Likelihood during this time.

Conditions
Rain